Wichelen, Belgium
Current Conditions -  °F | °C
As of 4:50 AM on Monday 22 Dec 2014 (Local Time) from EBAW Reporting Station
Overcast Overcast  
Wind Chill: 42°   Ceiling: 1100
Heat Index: 48°   Visibility: 6mi
Dew Point: 43°   Wind: 18mph
Humidity: 82%   Direction: 230°SW
Pressure: 30.12"   Gusts: 30mph
Location:  51.01°N, 3.98°E
Report Text: EBAW 220350Z AUTO 23016G26KT 9999 FEW009/// OVC011/// 09/06 Q1020
Loading
Personal Weather Stations






























Interactive Weather Map New forecast layout! Learn more

10-Day Weather Forecast

Advertisements
Track Severe Weather on mobile